Time;durP1;ratioP1;P1;durP2;ratioP2;P2;SDS_P1;SDS_P2;PMS_P1;PMS_P2;Temp;Humidity;BMP_temperature;BMP_pressure;BME280_temperature;BME280_humidity;BME280_pressure;Samples;Min_cycle;Max_cycle;Signal;HPM_P1;HPM_P2
2021/12/18 00:01:24;;;;;;;30.85;15.48;;;;;;;;;;5003388;28;20033;-77
2021/12/18 00:03:50;;;;;;;33.40;17.00;;;;;;;;;;5004782;28;20025;-78
2021/12/18 00:06:16;;;;;;;36.42;17.55;;;;;;;;;;5004224;28;20029;-77
2021/12/18 00:08:42;;;;;;;36.08;17.95;;;;;;;;;;5003230;28;20030;-77
2021/12/18 00:11:08;;;;;;;33.85;16.95;;;;;;;;;;5002633;28;20133;-77
2021/12/18 00:13:33;;;;;;;31.45;16.35;;;;;;;;;;5003199;28;20120;-78
2021/12/18 00:15:59;;;;;;;33.45;17.52;;;;;;;;;;5003635;28;20040;-76
2021/12/18 00:18:24;;;;;;;29.27;14.88;;;;;;;;;;5004025;28;20489;-77
2021/12/18 00:20:50;;;;;;;31.30;16.05;;;;;;;;;;5002965;28;20134;-76
2021/12/18 00:23:16;;;;;;;38.33;19.67;;;;;;;;;;5002445;28;20148;-76
2021/12/18 00:25:42;;;;;;;34.33;18.33;;;;;;;;;;4985611;28;20045;-77
2021/12/18 00:28:08;;;;;;;32.45;15.35;;;;;;;;;;5002914;28;20037;-76
2021/12/18 00:30:35;;;;;;;34.67;16.50;;;;;;;;;;5002424;28;20046;-76
2021/12/18 00:33:00;;;;;;;30.20;15.38;;;;;;;;;;5002407;28;20042;-76
2021/12/18 00:35:26;;;;;;;28.35;14.93;;;;;;;;;;5003123;28;20044;-77
2021/12/18 00:37:52;;;;;;;32.05;13.68;;;;;;;;;;5003522;28;20034;-77
2021/12/18 00:40:24;;;;;;;27.73;14.02;;;;;;;;;;4985465;28;20040;-77
2021/12/18 00:45:17;;;;;;;26.30;12.65;;;;;;;;;;5001282;28;20033;-76
2021/12/18 00:47:45;;;;;;;26.27;12.55;;;;;;;;;;5003149;28;20041;-78
2021/12/18 00:50:13;;;;;;;31.13;15.40;;;;;;;;;;5003565;28;20048;-76
2021/12/18 00:52:39;;;;;;;32.88;14.80;;;;;;;;;;5003254;28;20498;-77
2021/12/18 00:55:05;;;;;;;29.15;14.65;;;;;;;;;;4986219;28;20029;-76
2021/12/18 00:57:31;;;;;;;30.52;15.80;;;;;;;;;;5000990;28;20034;-77
2021/12/18 01:00:00;;;;;;;32.88;14.82;;;;;;;;;;5001877;28;20048;-76
2021/12/18 01:02:28;;;;;;;34.00;15.85;;;;;;;;;;5001956;28;20639;-77
2021/12/18 01:04:54;;;;;;;33.67;15.45;;;;;;;;;;5003357;28;20030;-78
2021/12/18 01:07:20;;;;;;;37.20;17.35;;;;;;;;;;5001284;28;20655;-78
2021/12/18 01:12:28;;;;;;;78.18;19.63;;;;;;;;;;5000939;28;20112;-77
2021/12/18 01:15:17;;;;;;;59.10;19.52;;;;;;;;;;4984955;28;20882;-77
2021/12/18 01:23:12;;;;;;;35.83;15.57;;;;;;;;;;5000861;28;20042;-76
2021/12/18 01:25:38;;;;;;;39.60;16.30;;;;;;;;;;5001495;28;20044;-76
2021/12/18 01:28:03;;;;;;;45.17;16.13;;;;;;;;;;5002521;28;20791;-76
2021/12/18 01:30:29;;;;;;;142.63;17.88;;;;;;;;;;4999645;28;20080;-77
2021/12/18 01:32:55;;;;;;;56.80;17.77;;;;;;;;;;5000913;28;20083;-78
2021/12/18 01:35:21;;;;;;;55.40;16.08;;;;;;;;;;5002198;28;20030;-76
2021/12/18 01:37:49;;;;;;;105.18;18.25;;;;;;;;;;5002334;28;20128;-77
2021/12/18 01:40:14;;;;;;;88.75;13.18;;;;;;;;;;5002001;28;20030;-76
2021/12/18 01:53:18;;;;;;;69.45;15.73;;;;;;;;;;5001839;28;20030;-76
2021/12/18 01:55:44;;;;;;;58.03;15.52;;;;;;;;;;5002404;28;20502;-77
2021/12/18 01:58:09;;;;;;;38.03;14.90;;;;;;;;;;5000693;28;20045;-77
2021/12/18 02:00:43;;;;;;;50.47;15.55;;;;;;;;;;5000571;28;20053;-76
2021/12/18 02:03:09;;;;;;;101.03;15.73;;;;;;;;;;5000855;28;20084;-77
2021/12/18 02:05:37;;;;;;;43.03;14.70;;;;;;;;;;4984103;28;20118;-77
2021/12/18 02:08:04;;;;;;;48.30;15.98;;;;;;;;;;5001910;28;20398;-76
2021/12/18 02:10:31;;;;;;;80.68;18.38;;;;;;;;;;5001309;28;20038;-76
2021/12/18 02:13:09;;;;;;;90.68;17.95;;;;;;;;;;4984132;28;20034;-76
2021/12/18 02:21:15;;;;;;;58.78;17.08;;;;;;;;;;5002271;28;20065;-77
2021/12/18 02:23:41;;;;;;;95.97;18.63;;;;;;;;;;5000782;28;20036;-76
2021/12/18 02:26:07;;;;;;;60.40;17.50;;;;;;;;;;4999590;28;20029;-78
2021/12/18 02:28:32;;;;;;;142.27;19.52;;;;;;;;;;5001472;28;20060;-76
2021/12/18 02:30:58;;;;;;;138.63;22.38;;;;;;;;;;5000770;28;20057;-76
2021/12/18 02:33:26;;;;;;;77.57;18.95;;;;;;;;;;5001339;28;20056;-76
2021/12/18 02:35:54;;;;;;;159.10;20.27;;;;;;;;;;5000676;28;20490;-76
2021/12/18 02:38:31;;;;;;;76.15;16.98;;;;;;;;;;4999800;28;20111;-76
2021/12/18 02:41:45;;;;;;;44.75;14.20;;;;;;;;;;5001127;28;20029;-77
2021/12/18 02:43:48;;;;;;;146.27;15.15;;;;;;;;;;4987514;28;20042;-76
2021/12/18 02:46:19;;;;;;;47.83;14.35;;;;;;;;;;5000188;28;20030;-76
2021/12/18 02:48:45;;;;;;;41.88;14.35;;;;;;;;;;4998614;28;20670;-78
2021/12/18 02:51:11;;;;;;;52.95;13.90;;;;;;;;;;5000089;28;20045;-78
2021/12/18 02:53:40;;;;;;;54.67;14.40;;;;;;;;;;5001004;28;20030;-76
2021/12/18 02:56:08;;;;;;;43.10;14.15;;;;;;;;;;4999816;28;20037;-76
2021/12/18 02:58:39;;;;;;;34.97;14.73;;;;;;;;;;4998963;28;20053;-77
2021/12/18 03:01:07;;;;;;;37.40;13.23;;;;;;;;;;4999624;28;20021;-79
2021/12/18 03:03:36;;;;;;;77.78;13.63;;;;;;;;;;4999762;28;20505;-76
2021/12/18 03:06:23;;;;;;;49.72;13.43;;;;;;;;;;5001181;28;20038;-77
2021/12/18 03:20:48;;;;;;;56.05;14.07;;;;;;;;;;4999916;28;20034;-76
2021/12/18 03:23:04;;;;;;;35.63;13.23;;;;;;;;;;5000523;28;20133;-77
2021/12/18 03:25:32;;;;;;;;;;;;;;;;;;5001470;28;20041;-77
2021/12/18 03:28:00;;;;;;;30.38;12.93;;;;;;;;;;5002265;28;20366;-77
2021/12/18 03:30:27;;;;;;;45.45;14.23;;;;;;;;;;4984372;28;20088;-78
2021/12/18 03:32:53;;;;;;;48.55;13.55;;;;;;;;;;5001112;28;20034;-78
2021/12/18 03:35:18;;;;;;;45.08;14.10;;;;;;;;;;4999665;28;20044;-78
2021/12/18 03:37:45;;;;;;;48.58;13.43;;;;;;;;;;5001099;28;20062;-77
2021/12/18 03:40:14;;;;;;;54.72;14.07;;;;;;;;;;5001089;28;20200;-77
2021/12/18 03:42:39;;;;;;;53.92;14.10;;;;;;;;;;5001914;28;20511;-76
2021/12/18 03:45:08;;;;;;;47.13;15.45;;;;;;;;;;5004009;28;20112;-77
2021/12/18 03:47:33;;;;;;;78.25;16.42;;;;;;;;;;5002308;28;20478;-77
2021/12/18 03:49:58;;;;;;;66.10;16.02;;;;;;;;;;5003076;28;20052;-76
2021/12/18 03:52:24;;;;;;;70.88;15.23;;;;;;;;;;5001479;28;20037;-77
2021/12/18 03:54:50;;;;;;;41.83;13.43;;;;;;;;;;5008273;28;20461;-78
2021/12/18 03:57:15;;;;;;;60.55;15.88;;;;;;;;;;5004260;28;20971;-78
2021/12/18 03:59:41;;;;;;;71.68;16.38;;;;;;;;;;5003718;28;20034;-78
2021/12/18 04:02:06;;;;;;;48.67;13.48;;;;;;;;;;5005544;28;20438;-76
2021/12/18 04:04:32;;;;;;;37.63;13.77;;;;;;;;;;4988198;28;20037;-76
2021/12/18 04:06:59;;;;;;;33.45;11.02;;;;;;;;;;5004143;28;20403;-76
2021/12/18 04:09:24;;;;;;;45.58;13.07;;;;;;;;;;5003819;28;20092;-78
2021/12/18 04:11:51;;;;;;;42.58;12.40;;;;;;;;;;5003536;28;20061;-76
2021/12/18 04:14:17;;;;;;;36.35;12.65;;;;;;;;;;5001772;28;20049;-78
2021/12/18 04:16:44;;;;;;;72.40;14.38;;;;;;;;;;5003673;28;20037;-77
2021/12/18 04:19:10;;;;;;;49.38;15.13;;;;;;;;;;5002753;28;20106;-77
2021/12/18 04:21:35;;;;;;;47.90;14.32;;;;;;;;;;5003257;28;20033;-76
2021/12/18 04:24:03;;;;;;;49.95;14.95;;;;;;;;;;5003952;28;20037;-78
2021/12/18 04:26:29;;;;;;;67.40;15.30;;;;;;;;;;5001294;28;20038;-78
2021/12/18 04:28:54;;;;;;;50.60;15.40;;;;;;;;;;5003690;28;20501;-76
2021/12/18 04:31:20;;;;;;;39.05;13.23;;;;;;;;;;5003417;28;20034;-75
2021/12/18 04:33:45;;;;;;;37.92;13.38;;;;;;;;;;5003624;28;20091;-79
2021/12/18 04:36:11;;;;;;;31.63;11.05;;;;;;;;;;5003112;28;20505;-77
2021/12/18 04:38:36;;;;;;;32.85;12.52;;;;;;;;;;5001825;28;20045;-78
2021/12/18 04:41:04;;;;;;;31.73;12.10;;;;;;;;;;5003355;28;20053;-78
2021/12/18 04:43:29;;;;;;;37.85;12.05;;;;;;;;;;4999023;28;20073;-77
2021/12/18 04:45:55;;;;;;;37.05;12.13;;;;;;;;;;5001587;28;20097;-76
2021/12/18 04:48:20;;;;;;;42.53;13.43;;;;;;;;;;5000979;28;20033;-77
2021/12/18 04:50:46;;;;;;;35.03;12.32;;;;;;;;;;5003078;28;20037;-76
2021/12/18 04:53:11;;;;;;;38.63;12.63;;;;;;;;;;5001226;28;20100;-77
2021/12/18 04:55:37;;;;;;;45.08;13.30;;;;;;;;;;5003248;28;20042;-79
2021/12/18 04:58:03;;;;;;;50.03;15.38;;;;;;;;;;4999532;28;20034;-77
2021/12/18 05:00:37;;;;;;;67.93;16.00;;;;;;;;;;5000203;28;20045;-78
2021/12/18 05:03:06;;;;;;;88.18;17.67;;;;;;;;;;5002044;28;20034;-76
2021/12/18 05:05:32;;;;;;;57.08;16.10;;;;;;;;;;5002880;28;20046;-77
2021/12/18 05:07:58;;;;;;;59.55;15.15;;;;;;;;;;5000963;28;20486;-77
2021/12/18 05:10:23;;;;;;;56.17;14.88;;;;;;;;;;5001586;28;20161;-76
2021/12/18 05:12:49;;;;;;;53.20;14.38;;;;;;;;;;5001132;28;20126;-77
2021/12/18 05:15:14;;;;;;;53.55;14.32;;;;;;;;;;5001382;28;20031;-77
2021/12/18 05:17:40;;;;;;;45.92;11.98;;;;;;;;;;5001159;28;20030;-78
2021/12/18 05:20:06;;;;;;;50.42;15.45;;;;;;;;;;5001314;28;20072;-77
2021/12/18 05:22:32;;;;;;;30.17;10.18;;;;;;;;;;5001793;28;20049;-77
2021/12/18 05:24:57;;;;;;;40.17;11.77;;;;;;;;;;5001026;28;20042;-77
2021/12/18 05:27:23;;;;;;;30.02;10.65;;;;;;;;;;5002146;28;20038;-77
2021/12/18 05:29:48;;;;;;;35.47;11.02;;;;;;;;;;5002678;28;20034;-78
2021/12/18 05:32:14;;;;;;;35.85;10.80;;;;;;;;;;4983644;28;20030;-77
2021/12/18 05:34:40;;;;;;;37.10;11.90;;;;;;;;;;5000430;28;20720;-77
2021/12/18 05:37:30;;;;;;;35.05;11.90;;;;;;;;;;5001048;28;20034;-77
2021/12/18 05:39:56;;;;;;;30.75;10.98;;;;;;;;;;5006662;28;20044;-77
2021/12/18 05:42:21;;;;;;;36.05;12.50;;;;;;;;;;5000962;28;20026;-79
2021/12/18 05:44:47;;;;;;;49.35;15.57;;;;;;;;;;5002716;28;20397;-77
2021/12/18 05:47:12;;;;;;;58.83;16.33;;;;;;;;;;4985482;28;20506;-77
2021/12/18 05:49:38;;;;;;;54.30;14.73;;;;;;;;;;5002269;28;20040;-76
2021/12/18 05:52:05;;;;;;;56.00;15.23;;;;;;;;;;5000126;28;20034;-76
2021/12/18 05:54:35;;;;;;;43.42;13.48;;;;;;;;;;5000069;28;20052;-76
2021/12/18 05:57:07;;;;;;;46.78;14.45;;;;;;;;;;4984422;28;20030;-78
2021/12/18 05:59:34;;;;;;;34.17;11.73;;;;;;;;;;5001734;28;20055;-77
2021/12/18 06:01:59;;;;;;;48.63;13.48;;;;;;;;;;5001662;28;20577;-77
2021/12/18 06:04:25;;;;;;;47.58;15.02;;;;;;;;;;4999703;28;20544;-76
2021/12/18 06:06:50;;;;;;;41.60;14.07;;;;;;;;;;5001636;28;20185;-76
2021/12/18 06:09:16;;;;;;;42.38;12.50;;;;;;;;;;5001656;28;20036;-78
2021/12/18 06:11:42;;;;;;;40.28;14.27;;;;;;;;;;5000172;28;20048;-77
2021/12/18 06:14:08;;;;;;;43.42;13.25;;;;;;;;;;4984289;28;20177;-76
2021/12/18 06:16:34;;;;;;;42.33;13.27;;;;;;;;;;5000729;28;20045;-76
2021/12/18 06:19:00;;;;;;;48.63;14.30;;;;;;;;;;5000480;28;20042;-75
2021/12/18 06:21:25;;;;;;;56.88;14.85;;;;;;;;;;5000482;28;20848;-76
2021/12/18 06:23:54;;;;;;;53.88;14.60;;;;;;;;;;5001059;28;20762;-76
2021/12/18 06:26:21;;;;;;;42.13;13.25;;;;;;;;;;4982871;28;20711;-75
2021/12/18 06:28:47;;;;;;;45.13;13.38;;;;;;;;;;5001435;28;20029;-73
2021/12/18 06:31:12;;;;;;;46.25;14.30;;;;;;;;;;5000993;28;20445;-73
2021/12/18 06:33:38;;;;;;;41.85;13.63;;;;;;;;;;5000921;28;20034;-74
2021/12/18 06:36:04;;;;;;;40.13;13.40;;;;;;;;;;5000257;28;20036;-74
2021/12/18 06:38:30;;;;;;;36.97;12.43;;;;;;;;;;5000130;28;20042;-73
2021/12/18 06:40:55;;;;;;;31.17;11.65;;;;;;;;;;5001224;28;20501;-73
2021/12/18 06:43:20;;;;;;;33.47;12.48;;;;;;;;;;4999748;28;20088;-73
2021/12/18 06:45:46;;;;;;;32.13;12.25;;;;;;;;;;5001654;28;20426;-73
2021/12/18 06:48:11;;;;;;;35.67;11.35;;;;;;;;;;4983068;28;20048;-73
2021/12/18 06:50:37;;;;;;;36.20;13.43;;;;;;;;;;5001257;28;20434;-74
2021/12/18 06:53:04;;;;;;;42.85;13.40;;;;;;;;;;5000252;28;20049;-75
2021/12/18 06:55:30;;;;;;;46.13;13.30;;;;;;;;;;5000708;28;20045;-73
2021/12/18 06:57:56;;;;;;;39.00;13.30;;;;;;;;;;5001646;28;20125;-74
2021/12/18 07:00:23;;;;;;;37.95;13.25;;;;;;;;;;4998927;28;20120;-74
2021/12/18 07:02:49;;;;;;;44.92;13.43;;;;;;;;;;5001317;28;20037;-74
2021/12/18 07:05:14;;;;;;;57.83;15.50;;;;;;;;;;5001427;28;20025;-73
2021/12/18 07:07:40;;;;;;;70.25;17.23;;;;;;;;;;4999806;28;20787;-73
2021/12/18 07:10:08;;;;;;;58.88;14.50;;;;;;;;;;4999776;28;20037;-73
2021/12/18 07:12:34;;;;;;;50.72;13.55;;;;;;;;;;4999813;28;20087;-74
2021/12/18 07:15:01;;;;;;;54.78;15.13;;;;;;;;;;5000250;28;20042;-74
2021/12/18 07:17:26;;;;;;;51.10;14.48;;;;;;;;;;4981971;28;20044;-73
2021/12/18 07:19:51;;;;;;;42.60;13.48;;;;;;;;;;4998831;28;20025;-74
2021/12/18 07:22:17;;;;;;;39.45;13.15;;;;;;;;;;4998922;28;20045;-73
2021/12/18 07:24:43;;;;;;;36.20;12.70;;;;;;;;;;4995055;28;20083;-73
2021/12/18 07:27:09;;;;;;;42.50;12.98;;;;;;;;;;4999566;28;20577;-73
2021/12/18 07:29:35;;;;;;;42.00;13.68;;;;;;;;;;4999057;28;20148;-74
2021/12/18 07:32:01;;;;;;;60.55;13.15;;;;;;;;;;5002933;28;20128;-74
2021/12/18 07:34:26;;;;;;;34.72;13.32;;;;;;;;;;5004092;28;20060;-76
2021/12/18 07:36:52;;;;;;;37.85;13.40;;;;;;;;;;5003464;28;20034;-74
2021/12/18 07:39:17;;;;;;;38.20;12.20;;;;;;;;;;5004899;28;20080;-73
2021/12/18 07:41:43;;;;;;;40.00;13.93;;;;;;;;;;5000552;28;20034;-72
2021/12/18 07:44:09;;;;;;;40.17;14.75;;;;;;;;;;5002439;28;20033;-73
2021/12/18 07:46:38;;;;;;;39.53;13.27;;;;;;;;;;5002665;28;20061;-73
2021/12/18 07:49:05;;;;;;;39.65;13.98;;;;;;;;;;4984735;28;20034;-72
2021/12/18 07:51:31;;;;;;;49.55;14.57;;;;;;;;;;5001781;28;20085;-74
2021/12/18 07:53:57;;;;;;;40.25;14.07;;;;;;;;;;5000966;28;20041;-74
2021/12/18 07:56:23;;;;;;;52.15;15.52;;;;;;;;;;4987614;28;20041;-74
2021/12/18 07:58:48;;;;;;;62.90;16.98;;;;;;;;;;5001115;28;20034;-74
2021/12/18 08:01:14;;;;;;;66.15;16.52;;;;;;;;;;5001741;28;20104;-74
2021/12/18 08:03:40;;;;;;;45.85;14.77;;;;;;;;;;5001930;28;20040;-74
2021/12/18 08:06:06;;;;;;;49.83;16.20;;;;;;;;;;5001210;28;20410;-74
2021/12/18 08:08:32;;;;;;;56.72;17.63;;;;;;;;;;5000151;28;20041;-74
2021/12/18 08:10:57;;;;;;;50.42;17.15;;;;;;;;;;5002092;28;20037;-73
2021/12/18 08:13:23;;;;;;;48.92;16.58;;;;;;;;;;5001598;28;20841;-73
2021/12/18 08:15:48;;;;;;;40.65;14.85;;;;;;;;;;5000467;28;20904;-74
2021/12/18 08:18:14;;;;;;;43.28;15.70;;;;;;;;;;5001144;28;20042;-73
2021/12/18 08:20:39;;;;;;;41.97;14.82;;;;;;;;;;5001235;28;20065;-74
2021/12/18 08:23:05;;;;;;;49.95;15.90;;;;;;;;;;4985538;28;20029;-73
2021/12/18 08:25:31;;;;;;;59.67;18.48;;;;;;;;;;4985144;28;20478;-74
2021/12/18 08:28:01;;;;;;;46.30;17.17;;;;;;;;;;4984527;28;20077;-74
2021/12/18 08:30:28;;;;;;;45.60;17.10;;;;;;;;;;5001521;28;20054;-73
2021/12/18 08:32:54;;;;;;;46.08;17.30;;;;;;;;;;5002320;28;20045;-73
2021/12/18 08:35:19;;;;;;;45.42;15.20;;;;;;;;;;4984153;28;20045;-74
2021/12/18 08:37:45;;;;;;;55.03;17.00;;;;;;;;;;4985759;28;20041;-73
2021/12/18 08:40:12;;;;;;;48.13;16.30;;;;;;;;;;4999817;28;20561;-74
2021/12/18 08:42:38;;;;;;;33.20;13.13;;;;;;;;;;4999421;28;20026;-72
2021/12/18 08:45:04;;;;;;;35.67;14.27;;;;;;;;;;4999946;28;20490;-73
2021/12/18 08:47:30;;;;;;;32.72;13.80;;;;;;;;;;5001423;28;20045;-73
2021/12/18 08:49:55;;;;;;;47.05;14.27;;;;;;;;;;5001986;28;20029;-70
2021/12/18 08:52:21;;;;;;;41.85;14.20;;;;;;;;;;5002839;28;20037;-74
2021/12/18 08:54:47;;;;;;;37.83;13.45;;;;;;;;;;5002090;28;20037;-74
2021/12/18 08:57:13;;;;;;;32.83;12.88;;;;;;;;;;5002018;28;20486;-74
2021/12/18 08:59:39;;;;;;;34.22;13.52;;;;;;;;;;5001748;28;20044;-74
2021/12/18 09:02:09;;;;;;;36.88;14.23;;;;;;;;;;5000552;28;20077;-74
2021/12/18 09:04:36;;;;;;;36.50;14.95;;;;;;;;;;5001659;28;20048;-74
2021/12/18 09:07:01;;;;;;;38.45;14.52;;;;;;;;;;5003164;28;20030;-74
2021/12/18 09:09:27;;;;;;;36.95;14.13;;;;;;;;;;5001879;28;20026;-74
2021/12/18 09:11:52;;;;;;;39.95;14.50;;;;;;;;;;4984374;28;20088;-74
2021/12/18 09:14:18;;;;;;;34.28;13.48;;;;;;;;;;5001655;28;21105;-74
2021/12/18 09:16:43;;;;;;;35.10;14.95;;;;;;;;;;5002531;28;20466;-74
2021/12/18 09:19:09;;;;;;;40.55;14.10;;;;;;;;;;5002825;28;20034;-74
2021/12/18 09:21:34;;;;;;;34.47;15.35;;;;;;;;;;5001570;28;20037;-74
2021/12/18 09:24:00;;;;;;;39.95;15.82;;;;;;;;;;5001997;28;20042;-74
2021/12/18 09:26:25;;;;;;;35.05;13.95;;;;;;;;;;5002139;28;20033;-74
2021/12/18 09:28:51;;;;;;;32.95;14.18;;;;;;;;;;5002575;28;20034;-74
2021/12/18 09:31:17;;;;;;;39.67;14.27;;;;;;;;;;5002160;28;20038;-73
2021/12/18 09:33:42;;;;;;;36.65;13.48;;;;;;;;;;5001829;28;20625;-74
2021/12/18 09:36:08;;;;;;;34.08;15.10;;;;;;;;;;5002143;28;20120;-74
2021/12/18 09:38:33;;;;;;;27.33;12.85;;;;;;;;;;5002590;28;20030;-74
2021/12/18 09:41:04;;;;;;;29.33;13.00;;;;;;;;;;5000983;28;20037;-73
2021/12/18 09:43:29;;;;;;;29.95;12.82;;;;;;;;;;5002020;28;20068;-73
2021/12/18 09:46:11;;;;;;;37.05;14.27;;;;;;;;;;5000017;28;20073;-73
2021/12/18 09:48:38;;;;;;;30.30;12.93;;;;;;;;;;5000913;28;20037;-74
2021/12/18 09:51:08;;;;;;;30.20;13.60;;;;;;;;;;5000770;28;20033;-73
2021/12/18 09:53:35;;;;;;;33.78;13.75;;;;;;;;;;5000705;28;20040;-74
2021/12/18 09:56:02;;;;;;;29.13;12.02;;;;;;;;;;5000327;28;20042;-75
2021/12/18 09:58:28;;;;;;;31.17;12.73;;;;;;;;;;5000615;28;20100;-75
2021/12/18 10:00:53;;;;;;;34.97;13.63;;;;;;;;;;5001062;28;20101;-76
2021/12/18 10:03:19;;;;;;;31.38;12.70;;;;;;;;;;5003272;28;20033;-76
2021/12/18 10:05:44;;;;;;;31.75;13.30;;;;;;;;;;5002484;28;20111;-74
2021/12/18 10:08:18;;;;;;;32.92;13.48;;;;;;;;;;4998982;28;20042;-72
2021/12/18 10:11:08;;;;;;;34.88;13.45;;;;;;;;;;4999212;28;20394;-74
2021/12/18 10:14:09;;;;;;;26.42;12.07;;;;;;;;;;4998588;28;20041;-72
2021/12/18 10:16:45;;;;;;;32.13;13.30;;;;;;;;;;4919255;29;20059;-72
2021/12/18 10:19:29;;;;;;;29.58;12.82;;;;;;;;;;4984649;28;20064;-74
2021/12/18 10:21:57;;;;;;;30.60;13.38;;;;;;;;;;4999511;28;20084;-73
2021/12/18 10:24:25;;;;;;;34.72;13.88;;;;;;;;;;5000385;28;20144;-76
2021/12/18 10:26:50;;;;;;;29.88;12.50;;;;;;;;;;4999441;28;20070;-76
2021/12/18 10:29:34;;;;;;;26.23;12.50;;;;;;;;;;4998157;28;20617;-75
2021/12/18 10:32:16;;;;;;;30.48;14.25;;;;;;;;;;4998161;28;20117;-76
2021/12/18 10:34:50;;;;;;;29.25;13.00;;;;;;;;;;4997886;28;20065;-76
2021/12/18 10:37:26;;;;;;;32.20;14.32;;;;;;;;;;4981207;28;20121;-75
2021/12/18 10:39:53;;;;;;;33.58;14.10;;;;;;;;;;4997561;28;20025;-76
2021/12/18 10:42:39;;;;;;;26.52;12.80;;;;;;;;;;4998112;28;20030;-76
2021/12/18 10:45:20;;;;;;;30.63;14.02;;;;;;;;;;4997187;28;20112;-76
2021/12/18 10:47:48;;;;;;;29.60;13.75;;;;;;;;;;4998769;28;20402;-75
2021/12/18 10:50:30;;;;;;;30.52;13.07;;;;;;;;;;4997723;28;20033;-76
2021/12/18 10:53:07;;;;;;;40.42;19.08;;;;;;;;;;4998007;28;20041;-76
2021/12/18 10:55:37;;;;;;;45.33;23.20;;;;;;;;;;4998554;28;20406;-74
2021/12/18 10:58:07;;;;;;;28.13;13.30;;;;;;;;;;4982873;28;20052;-72
2021/12/18 11:00:38;;;;;;;29.30;13.15;;;;;;;;;;4999445;28;20073;-73
2021/12/18 11:03:30;;;;;;;31.55;13.40;;;;;;;;;;4999196;28;20041;-73
2021/12/18 11:06:14;;;;;;;;;;;;;;;;;;5003299;28;20030;-73
2021/12/18 11:09:04;;;;;;;25.13;11.38;;;;;;;;;;5003895;28;19924;-73
2021/12/18 11:14:07;;;;;;;26.77;13.25;;;;;;;;;;5003432;28;20116;-74
2021/12/18 11:16:36;;;;;;;26.75;12.43;;;;;;;;;;5004864;28;20037;-77
2021/12/18 11:19:07;;;;;;;26.13;12.70;;;;;;;;;;4986569;28;20033;-76
2021/12/18 11:21:34;;;;;;;26.70;12.85;;;;;;;;;;5003019;28;20041;-77
2021/12/18 11:24:04;;;;;;;30.10;13.73;;;;;;;;;;5004566;28;20427;-76
2021/12/18 11:26:44;;;;;;;34.08;13.07;;;;;;;;;;5004354;28;20052;-77
2021/12/18 11:29:22;;;;;;;27.02;14.10;;;;;;;;;;5005332;28;20112;-77
2021/12/18 11:31:49;;;;;;;26.30;13.13;;;;;;;;;;5003365;28;20564;-77
2021/12/18 11:34:15;;;;;;;29.15;12.18;;;;;;;;;;4986626;28;20552;-77
2021/12/18 11:36:43;;;;;;;28.75;12.55;;;;;;;;;;5004871;28;20044;-77
2021/12/18 11:39:10;;;;;;;31.55;14.25;;;;;;;;;;4995001;28;20030;-77
2021/12/18 11:41:38;;;;;;;34.67;13.65;;;;;;;;;;5003024;28;20050;-74
2021/12/18 11:44:34;;;;;;;33.17;14.23;;;;;;;;;;5004778;28;20030;-74
2021/12/18 11:47:21;;;;;;;32.88;14.07;;;;;;;;;;5002662;28;20096;-77
2021/12/18 11:49:47;;;;;;;31.02;13.35;;;;;;;;;;4986781;28;20044;-77
2021/12/18 11:52:12;;;;;;;33.20;13.77;;;;;;;;;;5004317;28;20398;-77
2021/12/18 11:54:43;;;;;;;28.33;11.88;;;;;;;;;;5004164;28;20049;-77
2021/12/18 11:57:10;;;;;;;30.38;13.02;;;;;;;;;;5001122;28;20034;-77
2021/12/18 11:59:43;;;;;;;30.48;12.18;;;;;;;;;;5003248;28;20037;-77
2021/12/18 12:02:11;;;;;;;27.55;12.30;;;;;;;;;;5001464;28;20388;-77
2021/12/18 12:04:57;;;;;;;29.50;13.30;;;;;;;;;;4984812;28;20513;-77
2021/12/18 12:07:23;;;;;;;29.52;13.32;;;;;;;;;;5000871;28;20032;-76
2021/12/18 12:10:45;;;;;;;32.85;12.85;;;;;;;;;;5000905;28;20026;-77
2021/12/18 12:12:59;;;;;;;28.80;13.80;;;;;;;;;;4999918;28;20041;-76
2021/12/18 12:15:26;;;;;;;35.53;13.48;;;;;;;;;;4985212;28;20026;-76
2021/12/18 12:17:58;;;;;;;36.95;14.57;;;;;;;;;;5000364;28;20449;-76
2021/12/18 12:20:36;;;;;;;42.10;16.50;;;;;;;;;;5000577;28;20489;-73
2021/12/18 12:23:02;;;;;;;42.53;14.52;;;;;;;;;;5001467;28;20120;-73
2021/12/18 12:25:37;;;;;;;39.00;14.95;;;;;;;;;;5002682;28;20554;-73
2021/12/18 12:28:10;;;;;;;33.97;12.55;;;;;;;;;;5002321;28;20042;-73
2021/12/18 12:30:47;;;;;;;37.33;13.07;;;;;;;;;;4999454;28;20040;-75
2021/12/18 12:33:27;;;;;;;30.98;11.60;;;;;;;;;;5001391;28;20040;-74
2021/12/18 12:35:53;;;;;;;37.30;13.73;;;;;;;;;;5000036;28;20576;-74
2021/12/18 12:38:29;;;;;;;34.88;14.23;;;;;;;;;;5001380;28;20030;-74
2021/12/18 12:40:57;;;;;;;33.85;14.32;;;;;;;;;;5000296;28;20525;-74
2021/12/18 12:43:28;;;;;;;32.30;12.77;;;;;;;;;;5000461;28;20038;-74
2021/12/18 12:45:59;;;;;;;36.22;12.82;;;;;;;;;;5001614;28;20041;-74
2021/12/18 12:48:45;;;;;;;35.53;14.02;;;;;;;;;;5000326;28;20108;-74
2021/12/18 12:51:11;;;;;;;34.22;13.02;;;;;;;;;;5001020;28;20065;-75
2021/12/18 12:53:53;;;;;;;29.58;13.75;;;;;;;;;;5001493;28;20061;-75
2021/12/18 12:56:21;;;;;;;30.45;13.38;;;;;;;;;;5002245;28;20030;-75
2021/12/18 12:59:06;;;;;;;35.22;13.98;;;;;;;;;;5001818;28;20033;-73
2021/12/18 13:01:38;;;;;;;33.42;13.95;;;;;;;;;;5000199;28;20056;-73
2021/12/18 13:04:03;;;;;;;32.40;14.63;;;;;;;;;;5000629;28;20054;-76
2021/12/18 13:06:29;;;;;;;35.80;13.88;;;;;;;;;;5002235;28;20467;-75
2021/12/18 13:08:54;;;;;;;34.47;13.93;;;;;;;;;;5001318;28;20026;-74
2021/12/18 13:11:25;;;;;;;32.90;14.02;;;;;;;;;;5002366;28;20093;-76
2021/12/18 13:13:52;;;;;;;39.85;15.10;;;;;;;;;;4983592;28;20041;-77
2021/12/18 13:16:24;;;;;;;34.58;14.15;;;;;;;;;;4981420;28;20034;-76
2021/12/18 13:18:58;;;;;;;38.97;14.65;;;;;;;;;;4993638;28;20091;-76
2021/12/18 13:21:27;;;;;;;35.40;13.95;;;;;;;;;;5000872;28;20033;-76
2021/12/18 13:23:59;;;;;;;32.00;13.65;;;;;;;;;;5001941;28;20029;-76
2021/12/18 13:26:43;;;;;;;35.97;13.30;;;;;;;;;;5001313;28;20045;-76
2021/12/18 13:29:11;;;;;;;34.63;13.75;;;;;;;;;;5000991;28;20034;-76
2021/12/18 13:31:49;;;;;;;33.08;12.68;;;;;;;;;;5002214;28;20038;-76
2021/12/18 13:34:25;;;;;;;36.53;13.02;;;;;;;;;;5002573;28;20042;-77
2021/12/18 13:37:00;;;;;;;30.23;13.55;;;;;;;;;;4983546;28;20034;-76
2021/12/18 13:39:29;;;;;;;31.45;12.55;;;;;;;;;;5002112;28;20475;-76
2021/12/18 13:42:09;;;;;;;40.45;13.80;;;;;;;;;;4999296;28;20033;-77
2021/12/18 13:44:54;;;;;;;39.30;14.70;;;;;;;;;;5002547;28;20089;-77
2021/12/18 13:47:24;;;;;;;32.28;13.55;;;;;;;;;;4998427;28;20033;-77
2021/12/18 13:49:58;;;;;;;35.28;12.88;;;;;;;;;;4991974;28;20095;-78
2021/12/18 13:52:40;;;;;;;34.78;14.13;;;;;;;;;;5003251;28;20501;-77
2021/12/18 13:55:45;;;;;;;44.33;15.73;;;;;;;;;;4985495;28;20030;-77
2021/12/18 13:58:27;;;;;;;39.25;14.38;;;;;;;;;;5001043;28;20038;-77
2021/12/18 14:01:00;;;;;;;36.30;14.52;;;;;;;;;;5003699;28;20402;-78
2021/12/18 14:03:33;;;;;;;29.95;12.55;;;;;;;;;;5001377;28;20029;-77
2021/12/18 14:06:21;;;;;;;33.65;13.85;;;;;;;;;;5017559;28;20033;-77
2021/12/18 14:08:51;;;;;;;27.75;12.00;;;;;;;;;;4991174;28;20056;-77
2021/12/18 14:11:26;;;;;;;32.53;13.80;;;;;;;;;;4980296;28;20549;-77
2021/12/18 14:13:57;;;;;;;29.77;12.77;;;;;;;;;;4998902;28;20087;-77
2021/12/18 14:16:23;;;;;;;29.23;12.65;;;;;;;;;;4997792;28;20149;-77
2021/12/18 14:19:13;;;;;;;35.35;13.95;;;;;;;;;;5000950;28;20037;-76
2021/12/18 14:21:45;;;;;;;35.47;14.02;;;;;;;;;;4998344;28;20056;-77
2021/12/18 14:24:15;;;;;;;35.03;13.60;;;;;;;;;;5007782;28;20049;-76
2021/12/18 14:26:57;;;;;;;31.58;13.45;;;;;;;;;;4999173;28;20176;-76
2021/12/18 14:29:24;;;;;;;32.47;12.65;;;;;;;;;;5009828;28;20033;-77
2021/12/18 14:31:52;;;;;;;35.17;13.30;;;;;;;;;;4997362;28;20034;-76
2021/12/18 14:34:22;;;;;;;29.52;13.65;;;;;;;;;;5001301;28;20692;-78
2021/12/18 14:36:56;;;;;;;29.88;13.43;;;;;;;;;;5000756;28;20144;-77
2021/12/18 14:39:28;;;;;;;29.95;12.43;;;;;;;;;;5000309;28;20045;-77
2021/12/18 14:42:16;;;;;;;31.17;13.70;;;;;;;;;;4999516;28;20029;-77
2021/12/18 14:44:48;;;;;;;33.22;14.10;;;;;;;;;;5001053;28;20089;-76
2021/12/18 14:47:21;;;;;;;34.15;14.25;;;;;;;;;;5002406;28;20394;-76
2021/12/18 14:50:22;;;;;;;35.50;13.85;;;;;;;;;;5000719;28;20037;-77
2021/12/18 14:53:04;;;;;;;27.58;12.80;;;;;;;;;;4999294;28;20080;-76
2021/12/18 14:55:41;;;;;;;31.90;12.82;;;;;;;;;;5000972;28;20220;-76
2021/12/18 14:58:12;;;;;;;26.63;11.63;;;;;;;;;;5000700;28;20042;-77
2021/12/18 15:00:58;;;;;;;30.73;12.75;;;;;;;;;;4998276;28;20042;-77
2021/12/18 15:03:39;;;;;;;30.65;13.85;;;;;;;;;;4998068;28;20164;-76
2021/12/18 15:06:27;;;;;;;27.33;12.07;;;;;;;;;;5015894;28;20057;-76
2021/12/18 15:08:59;;;;;;;31.40;12.55;;;;;;;;;;5001573;28;20034;-76
2021/12/18 15:11:27;;;;;;;34.88;13.70;;;;;;;;;;5003524;28;20046;-76
2021/12/18 15:14:06;;;;;;;44.03;14.48;;;;;;;;;;5003346;28;20034;-77